Aeroporto :
LOGIN :

Iscrizione | Disclaimer

   EN    FR    IT 

 










Sommario :    VFR   VFR Marginale   IFR   IFR Intensivo   IFR Molto Intensivo
Visibilità : 
Base nubi : 
>= 8 km
>= 3000ft
5 / 8 km
1000 / 3000 ft
1500m / 5 km
500 / 1000 ft
800 / 1500m
200 / 500 ft
< 800m
< 200 ft
Simboli :   Temporali  Nebbia  Neve Forte  Precipitazioni Forti  Vento > 20 kt
SIGMETs :   Varie  Temporali  Ghiacco  Turbolenza  Onda orograficha  Ceneri Vulcaniche






- Altitudine del aeroporto : 204 ft
- Codice IATA : AGF


LFBA - Agen

ULTIMO METAR :
  • 250600Z AUTO 22008KT 170V250 9999 BKN031 OVC038 10/07 Q1018 TEMPO 4000 -RA OVC007

METARs OBSOLETI :
  • 250530Z AUTO 22007KT 180V250 9999 SCT028 BKN034 OVC041 10/07 Q1019
  • 250500Z AUTO 22006KT 9999 OVC034 10/07 Q1019
  • 250430Z AUTO 22007KT 200V260 9999 OVC035 10/07 Q1018
  • 250400Z AUTO 22008KT 190V250 9999 BKN032 09/07 Q1019
  • 250330Z AUTO 23004KT 160V280 9999 OVC030 09/06 Q1019

TAF TAF LFBA
Valido dal 25 a 06 ore il 25 a 15 ore UTC


250500Z 2506/2515 22010KT 9999 OVC030
TEMPO 2507/2515 4000 -RA OVC007
PROB30
TEMPO 2509/2515 24015G25KT



MetMap, La meteo Aeronautica in un colpo d'occhio ! - Copyright ORBIFLY Dicembre 2007 - Disclaimer

ORBIFLY MET'MAP TEAM :

Programmazione e sviluppo : Alexandra Zaïnal
Concezione : Baudouin d'Aumeries
Aiuto per la programmazione : Marc-Olivier Méhu
Supporto tecnico e logistico : Manuel Goepfert
Aiuto per la traduzione : Arnaldo La Scala

Contatto : metmap@orbifly.com




FONTI E CREDITI :

   NOAA